OEBA/ABT METAR and TAF weather

Enter ICAO airport designator
Station Type Date Time Source
OEBA METAR 2019/05/23 18:00 UTC NOAA

OEBA 231800Z 15010KT 9999 TS FEW025CB SCT030 20/16 Q1022 NOSIG


Station Type Date Time Source
OEBA Decoded METAR 2019/05/23 18:00 UTC NOAA

Al Baha, Saudi Arabia (OEBA) 20-18N 041-38E 1662M
May 23, 2019 - 02:00 PM EDT / 2019.05.23 1800 UTC
Wind: from the SSE (150 degrees) at 12 MPH (10 KT):0
Visibility: greater than 7 mile(s):0
Sky conditions: partly cloudy
Weather: thunder; Cumulonimbus clouds observed
Temperature: 68 F (20 C)
Dew Point: 60 F (16 C)
Relative Humidity: 77%
Pressure (altimeter): 30.18 in. Hg (1022 hPa)
ob: OEBA 231800Z 15010KT 9999 TS FEW025CB SCT030 20/16 Q1022 NOSIG
cycle: 18

Station Type Date Time Source
OEBA TAF 2019/05/23 12:09 UTC NOAA

TAF OEBA 231100Z 2312/2418 16013KT 9999 FEW030
TEMPO 2312/2317 7000 TSRA FEW025CB SCT030

Example: see airport list